createdAt,value
2023-04-24T00:00:43.582Z,13.20
2023-04-24T00:03:32.604Z,13.10
2023-04-24T00:06:09.549Z,13.10
2023-04-24T00:08:37.575Z,13.00
2023-04-24T00:11:11.846Z,13.00
2023-04-24T00:13:47.910Z,13.00
2023-04-24T00:16:32.280Z,13.00
2023-04-24T00:19:04.731Z,12.90
2023-04-24T00:21:53.913Z,13.00
2023-04-24T00:24:27.641Z,13.00
2023-04-24T00:27:09.807Z,13.00
2023-04-24T00:29:48.428Z,13.00
2023-04-24T00:32:24.705Z,13.00
2023-04-24T00:34:58.086Z,13.00
2023-04-24T00:37:30.438Z,13.00
2023-04-24T00:40:14.811Z,13.00
2023-04-24T00:42:59.328Z,13.00
2023-04-24T00:45:39.718Z,13.00
2023-04-24T00:48:14.047Z,13.10
2023-04-24T00:50:49.686Z,13.10
2023-04-24T00:53:46.359Z,13.00
2023-04-24T00:56:23.412Z,13.10
2023-04-24T00:58:51.678Z,13.10
2023-04-24T01:01:26.984Z,13.10
2023-04-24T01:04:03.885Z,13.00
2023-04-24T01:06:41.301Z,13.00
2023-04-24T01:09:21.876Z,13.00
2023-04-24T01:11:55.372Z,12.90
2023-04-24T01:15:00.053Z,12.90
2023-04-24T01:17:33.514Z,12.90
2023-04-24T01:20:15.395Z,12.90
2023-04-24T01:22:58.532Z,12.90
2023-04-24T01:25:34.669Z,12.90
2023-04-24T01:28:05.304Z,12.90
2023-04-24T01:30:32.590Z,12.90
2023-04-24T01:33:00.393Z,12.90
2023-04-24T01:35:27.717Z,12.90
2023-04-24T01:37:54.862Z,12.90
2023-04-24T01:40:24.898Z,12.90
2023-04-24T01:42:52.191Z,12.80
2023-04-24T01:45:19.382Z,12.70
2023-04-24T01:47:47.386Z,12.70
2023-04-24T01:50:14.603Z,12.60
2023-04-24T01:52:41.807Z,12.60
2023-04-24T01:55:11.121Z,12.50
2023-04-24T01:57:38.855Z,12.50
2023-04-24T02:00:07.951Z,12.50
2023-04-24T02:02:42.727Z,12.50
2023-04-24T02:05:11.055Z,12.50
2023-04-24T02:07:38.082Z,12.50
2023-04-24T02:10:06.082Z,12.60
2023-04-24T02:12:33.143Z,12.50
2023-04-24T02:15:00.290Z,12.40
2023-04-24T02:17:27.588Z,12.40
2023-04-24T02:19:54.861Z,12.30
2023-04-24T02:22:21.827Z,12.30
2023-04-24T02:24:49.051Z,12.30
2023-04-24T02:27:16.597Z,12.30
2023-04-24T02:29:43.936Z,12.40
2023-04-24T02:32:13.963Z,12.30
2023-04-24T02:34:40.948Z,12.30
2023-04-24T02:37:17.029Z,12.30
2023-04-24T02:39:44.484Z,12.40
2023-04-24T02:42:11.684Z,12.40
2023-04-24T02:44:38.643Z,12.40
2023-04-24T02:47:05.960Z,12.40
2023-04-24T02:49:33.073Z,12.50
2023-04-24T02:52:00.026Z,12.50
2023-04-24T02:54:27.014Z,12.50
2023-04-24T02:56:54.163Z,12.50
2023-04-24T02:59:21.316Z,12.50
2023-04-24T03:01:48.345Z,12.50
2023-04-24T03:04:16.788Z,12.50
2023-04-24T03:06:44.134Z,12.50
2023-04-24T03:09:11.540Z,12.50
2023-04-24T03:11:38.562Z,12.50
2023-04-24T03:14:05.519Z,12.50
2023-04-24T03:16:34.229Z,12.50
2023-04-24T03:19:01.294Z,12.50
2023-04-24T03:21:31.660Z,12.50
2023-04-24T03:23:59.431Z,12.50
2023-04-24T03:26:26.513Z,12.50
2023-04-24T03:29:05.373Z,12.40
2023-04-24T03:31:32.641Z,12.30
2023-04-24T03:33:59.669Z,12.30
2023-04-24T03:36:44.723Z,12.30
2023-04-24T03:43:38.010Z,12.30
2023-04-24T03:46:16.251Z,12.30
2023-04-24T03:48:49.138Z,12.30
2023-04-24T03:51:21.350Z,12.30
2023-04-24T03:53:51.487Z,12.20
2023-04-24T03:56:21.861Z,12.20
2023-04-24T03:58:48.892Z,12.20
2023-04-24T04:01:17.284Z,12.20
2023-04-24T04:04:09.055Z,12.20
2023-04-24T04:06:38.166Z,12.20
2023-04-24T04:09:06.018Z,12.20
2023-04-24T04:11:33.009Z,12.20
2023-04-24T04:13:59.930Z,12.20
2023-04-24T04:16:26.986Z,12.20
2023-04-24T04:19:00.465Z,12.20
2023-04-24T04:21:28.237Z,12.20
2023-04-24T04:24:08.928Z,12.20
2023-04-24T04:26:47.478Z,12.20
2023-04-24T04:29:21.504Z,12.20
2023-04-24T04:31:51.144Z,12.20
2023-04-24T04:34:18.161Z,12.20
2023-04-24T04:36:45.391Z,12.20
2023-04-24T04:39:35.418Z,12.10
2023-04-24T04:42:09.014Z,12.20
2023-04-24T04:44:41.070Z,12.20
2023-04-24T04:47:11.795Z,12.10
2023-04-24T04:49:39.933Z,12.10
2023-04-24T04:52:12.100Z,12.10
2023-04-24T04:54:39.234Z,12.10
2023-04-24T04:57:06.987Z,12.10
2023-04-24T04:59:35.206Z,12.10
2023-04-24T05:02:11.309Z,12.00
2023-04-24T05:04:38.510Z,12.00
2023-04-24T05:07:05.635Z,12.00
2023-04-24T05:09:34.971Z,12.00
2023-04-24T05:12:05.062Z,12.00
2023-04-24T05:14:36.692Z,12.10
2023-04-24T05:17:04.114Z,12.00
2023-04-24T05:20:37.592Z,12.00
2023-04-24T05:23:04.954Z,12.00
2023-04-24T05:25:36.296Z,12.00
2023-04-24T05:28:08.481Z,12.00
2023-04-24T05:30:35.554Z,11.90
2023-04-24T05:33:03.822Z,11.90
2023-04-24T05:35:34.339Z,11.90
2023-04-24T05:38:02.383Z,11.90
2023-04-24T05:40:29.679Z,11.90
2023-04-24T05:42:56.586Z,11.90
2023-04-24T05:45:25.319Z,11.90
2023-04-24T05:47:53.624Z,11.90
2023-04-24T05:50:21.082Z,12.00
2023-04-24T05:52:47.991Z,12.00
2023-04-24T05:55:29.289Z,12.00
2023-04-24T05:57:58.088Z,11.90
2023-04-24T06:00:27.157Z,11.90
2023-04-24T06:03:01.872Z,12.00
2023-04-24T06:05:29.329Z,12.00
2023-04-24T06:07:56.304Z,12.10
2023-04-24T06:10:25.999Z,12.10
2023-04-24T06:12:53.284Z,12.20
2023-04-24T06:15:20.728Z,12.20
2023-04-24T06:18:00.461Z,12.20
2023-04-24T06:20:28.042Z,12.20
2023-04-24T06:22:57.774Z,12.10
2023-04-24T06:25:27.842Z,12.10
2023-04-24T06:27:57.879Z,12.10
2023-04-24T06:30:24.948Z,12.00
2023-04-24T06:32:52.259Z,12.00
2023-04-24T06:35:19.296Z,12.00
2023-04-24T06:37:46.809Z,12.10
2023-04-24T06:40:13.966Z,12.00
2023-04-24T06:42:40.875Z,12.00
2023-04-24T06:45:09.581Z,12.00
2023-04-24T06:47:36.535Z,12.10
2023-04-24T06:50:03.768Z,12.00
2023-04-24T06:52:33.810Z,12.10
2023-04-24T06:55:05.025Z,12.20
2023-04-24T06:57:35.030Z,12.20
2023-04-24T07:00:01.934Z,12.30
2023-04-24T07:02:29.033Z,12.30
2023-04-24T07:04:55.984Z,12.40
2023-04-24T07:07:25.586Z,12.50
2023-04-24T07:09:52.626Z,12.50
2023-04-24T07:12:21.628Z,12.50
2023-04-24T07:14:49.168Z,12.60
2023-04-24T07:17:16.149Z,12.70
2023-04-24T07:19:43.784Z,13.20
2023-04-24T07:22:12.637Z,14.00
2023-04-24T07:24:39.584Z,14.60
2023-04-24T07:27:06.713Z,15.00
2023-04-24T07:29:33.736Z,15.30
2023-04-24T07:32:02.683Z,15.50
2023-04-24T07:34:31.315Z,16.00
2023-04-24T07:36:58.411Z,16.10
2023-04-24T07:39:25.934Z,16.00
2023-04-24T07:41:53.132Z,16.00
2023-04-24T07:44:20.077Z,16.10
2023-04-24T07:46:47.080Z,16.40
2023-04-24T07:49:15.292Z,16.80
2023-04-24T07:51:43.403Z,17.10
2023-04-24T07:54:10.633Z,17.10
2023-04-24T07:56:40.281Z,17.00
2023-04-24T07:59:07.629Z,16.90
2023-04-24T08:01:34.994Z,16.70
2023-04-24T08:04:02.276Z,16.40
2023-04-24T08:06:31.669Z,16.00
2023-04-24T08:08:59.278Z,15.60
2023-04-24T08:11:27.482Z,15.20
2023-04-24T08:13:55.967Z,14.80
2023-04-24T08:16:25.150Z,14.50
2023-04-24T08:18:52.913Z,14.30
2023-04-24T08:21:21.613Z,14.10
2023-04-24T08:23:48.520Z,14.00
2023-04-24T08:26:15.824Z,13.90
2023-04-24T08:28:43.863Z,13.80
2023-04-24T08:31:11.242Z,13.70
2023-04-24T08:33:38.368Z,13.70
2023-04-24T08:36:06.652Z,13.70
2023-04-24T08:38:34.085Z,13.80
2023-04-24T08:41:02.350Z,13.80
2023-04-24T08:43:29.764Z,13.80
2023-04-24T08:45:58.520Z,13.80
2023-04-24T08:48:31.812Z,13.80
2023-04-24T08:51:00.601Z,13.80
2023-04-24T08:53:28.170Z,13.80
2023-04-24T08:55:57.785Z,13.80
2023-04-24T08:58:27.657Z,13.70
2023-04-24T09:00:59.409Z,13.70
2023-04-24T09:03:28.757Z,13.80
2023-04-24T09:05:57.493Z,13.80
2023-04-24T09:08:27.187Z,13.90
2023-04-24T09:10:54.371Z,13.90
2023-04-24T09:13:22.203Z,14.00
2023-04-24T09:15:49.268Z,14.00
2023-04-24T09:18:16.227Z,14.20
2023-04-24T09:21:07.738Z,14.30
2023-04-24T09:23:34.790Z,14.60
2023-04-24T09:26:06.185Z,14.90
2023-04-24T09:28:38.309Z,15.00
2023-04-24T09:31:11.629Z,14.70
2023-04-24T09:33:41.015Z,14.40
2023-04-24T09:36:11.339Z,14.20
2023-04-24T09:38:41.611Z,13.90
2023-04-24T09:41:14.364Z,13.70
2023-04-24T09:43:41.324Z,13.60
2023-04-24T09:46:10.833Z,13.60
2023-04-24T09:48:39.318Z,13.60
2023-04-24T09:51:11.535Z,13.60
2023-04-24T09:53:43.664Z,13.70
2023-04-24T09:56:14.838Z,13.70
2023-04-24T09:58:42.268Z,13.90
2023-04-24T10:01:10.648Z,14.80
2023-04-24T10:03:37.678Z,16.40
2023-04-24T10:06:10.442Z,17.80
2023-04-24T10:08:38.928Z,19.20
2023-04-24T10:11:06.640Z,20.00
2023-04-24T10:13:33.937Z,20.20
2023-04-24T10:16:02.966Z,20.20
2023-04-24T10:18:30.964Z,20.20
2023-04-24T10:21:01.000Z,19.70
2023-04-24T10:23:28.870Z,19.00
2023-04-24T10:25:56.768Z,18.40
2023-04-24T10:28:25.468Z,17.70
2023-04-24T10:30:56.032Z,17.10
2023-04-24T10:33:26.701Z,16.70
2023-04-24T10:35:54.416Z,16.40
2023-04-24T10:38:29.115Z,16.20
2023-04-24T10:41:09.495Z,16.20
2023-04-24T10:43:36.675Z,16.00
2023-04-24T10:46:06.257Z,17.10
2023-04-24T10:48:34.383Z,18.10
2023-04-24T10:51:04.350Z,18.30
2023-04-24T10:53:31.774Z,18.40
2023-04-24T10:56:08.523Z,18.30
2023-04-24T10:58:47.171Z,17.90
2023-04-24T11:01:29.012Z,17.50
2023-04-24T11:04:01.374Z,17.20
2023-04-24T11:06:32.656Z,16.90
2023-04-24T11:09:08.382Z,16.60
2023-04-24T11:11:37.986Z,16.50
2023-04-24T11:14:07.933Z,16.30
2023-04-24T11:16:54.154Z,16.00
2023-04-24T11:19:30.186Z,15.80
2023-04-24T11:22:05.912Z,15.70
2023-04-24T11:24:52.212Z,15.60
2023-04-24T11:27:25.454Z,15.50
2023-04-24T11:29:59.020Z,15.40
2023-04-24T11:32:29.262Z,15.50
2023-04-24T11:34:58.618Z,15.70
2023-04-24T11:37:28.217Z,16.40
2023-04-24T11:39:57.166Z,17.50
2023-04-24T11:42:26.363Z,18.70
2023-04-24T11:44:55.363Z,19.60
2023-04-24T11:47:30.100Z,19.90
2023-04-24T11:49:57.584Z,19.80
2023-04-24T11:52:24.652Z,20.10
2023-04-24T11:54:51.804Z,19.90
2023-04-24T11:57:23.119Z,19.40
2023-04-24T11:59:50.566Z,18.80
2023-04-24T12:02:28.305Z,18.30
2023-04-24T12:04:56.225Z,17.90
2023-04-24T12:07:25.524Z,17.60
2023-04-24T12:10:01.099Z,17.40
2023-04-24T12:12:29.793Z,17.30
2023-04-24T12:15:00.632Z,17.50
2023-04-24T12:17:34.552Z,18.10
2023-04-24T12:20:08.094Z,18.50
2023-04-24T12:23:04.588Z,19.00
2023-04-24T12:25:33.667Z,21.00
2023-04-24T12:28:07.149Z,22.60
2023-04-24T12:30:49.627Z,23.60
2023-04-24T12:33:21.466Z,24.50
2023-04-24T12:35:49.807Z,24.70
2023-04-24T12:38:18.907Z,24.20
2023-04-24T12:40:45.945Z,23.20
2023-04-24T12:43:20.248Z,22.20
2023-04-24T12:45:48.742Z,21.30
2023-04-24T12:48:15.852Z,20.50
2023-04-24T12:50:46.368Z,20.00
2023-04-24T12:53:14.288Z,19.50
2023-04-24T12:55:41.638Z,19.10
2023-04-24T12:58:09.150Z,18.60
2023-04-24T13:00:36.191Z,18.30
2023-04-24T13:03:04.209Z,18.20
2023-04-24T13:05:31.864Z,18.10
2023-04-24T13:07:58.895Z,18.10
2023-04-24T13:10:25.956Z,18.10
2023-04-24T13:12:53.108Z,18.00
2023-04-24T13:15:20.227Z,17.90
2023-04-24T13:17:47.385Z,17.80
2023-04-24T13:20:14.490Z,17.60
2023-04-24T13:22:41.434Z,17.50
2023-04-24T13:25:08.734Z,17.40
2023-04-24T13:27:35.868Z,17.40
2023-04-24T13:30:03.027Z,17.50
2023-04-24T13:32:31.616Z,17.50
2023-04-24T13:34:58.928Z,17.80
2023-04-24T13:37:26.130Z,18.30
2023-04-24T13:39:53.192Z,18.60
2023-04-24T13:42:21.078Z,18.70
2023-04-24T13:44:48.712Z,18.70
2023-04-24T13:47:15.760Z,19.40
2023-04-24T13:49:42.696Z,19.70
2023-04-24T13:52:11.372Z,19.50
2023-04-24T13:54:38.906Z,19.30
2023-04-24T13:57:06.121Z,19.50
2023-04-24T13:59:33.406Z,20.60
2023-04-24T14:02:00.529Z,20.70
2023-04-24T14:04:27.745Z,20.20
2023-04-24T14:06:54.871Z,19.70
2023-04-24T14:09:21.826Z,19.30
2023-04-24T14:11:48.704Z,18.90
2023-04-24T14:14:16.051Z,18.50
2023-04-24T14:16:43.232Z,18.20
2023-04-24T14:19:10.303Z,17.90
2023-04-24T14:21:37.249Z,17.70
2023-04-24T14:24:04.273Z,17.50
2023-04-24T14:26:31.345Z,17.30
2023-04-24T14:29:13.612Z,17.20
2023-04-24T14:31:42.743Z,17.00
2023-04-24T14:34:10.310Z,16.80
2023-04-24T14:36:39.125Z,16.80
2023-04-24T14:39:08.428Z,16.80
2023-04-24T14:41:37.224Z,16.70
2023-04-24T14:44:05.037Z,16.70
2023-04-24T14:46:32.241Z,16.70
2023-04-24T14:48:59.705Z,16.70
2023-04-24T14:51:26.908Z,16.60
2023-04-24T14:53:54.086Z,16.50
2023-04-24T14:56:21.741Z,16.50
2023-04-24T14:58:48.731Z,16.40
2023-04-24T15:01:17.400Z,16.40
2023-04-24T15:03:45.893Z,16.40
2023-04-24T15:06:13.526Z,16.40
2023-04-24T15:08:40.706Z,16.50
2023-04-24T15:11:07.734Z,16.70
2023-04-24T15:13:34.625Z,16.90
2023-04-24T15:16:03.306Z,17.00
2023-04-24T15:18:30.471Z,16.90
2023-04-24T15:20:57.948Z,16.90
2023-04-24T15:23:24.986Z,16.90
2023-04-24T15:25:52.059Z,16.90
2023-04-24T15:28:19.072Z,16.90
2023-04-24T15:31:16.467Z,16.90
2023-04-24T15:33:45.262Z,16.90
2023-04-24T15:36:15.753Z,16.90
2023-04-24T15:38:44.718Z,16.90
2023-04-24T15:41:12.576Z,16.90
2023-04-24T15:43:41.584Z,16.90
2023-04-24T15:46:09.157Z,16.90
2023-04-24T15:59:48.485Z,16.30
2023-04-24T16:02:57.984Z,16.30
2023-04-24T16:05:27.330Z,16.10
2023-04-24T16:07:54.464Z,15.90
2023-04-24T16:10:26.722Z,15.90
2023-04-24T16:12:59.022Z,15.70
2023-04-24T16:16:15.372Z,15.70
2023-04-24T16:18:59.949Z,15.50
2023-04-24T16:24:30.143Z,15.60
2023-04-24T16:27:04.159Z,15.60
2023-04-24T16:29:33.990Z,15.60
2023-04-24T16:32:39.708Z,15.70
2023-04-24T16:35:07.521Z,15.70
2023-04-24T16:38:57.138Z,15.70
2023-04-24T16:42:11.975Z,15.70
2023-04-24T16:45:22.928Z,15.60
2023-04-24T16:47:30.751Z,15.40
2023-04-24T16:49:57.766Z,15.30
2023-04-24T16:52:24.729Z,15.30
2023-04-24T16:54:51.853Z,15.20
2023-04-24T16:57:21.680Z,15.20
2023-04-24T16:59:48.694Z,15.10
2023-04-24T17:07:03.222Z,15.10
2023-04-24T17:09:49.208Z,15.00
2023-04-24T17:12:41.936Z,14.90
2023-04-24T17:15:09.150Z,14.80
2023-04-24T17:17:36.848Z,14.60
2023-04-24T17:21:00.937Z,14.50
2023-04-24T17:23:25.917Z,14.50
2023-04-24T17:25:56.777Z,14.40
2023-04-24T17:28:30.033Z,14.40
2023-04-24T17:31:00.885Z,14.40
2023-04-24T17:33:30.233Z,14.40
2023-04-24T17:36:05.276Z,14.40
2023-04-24T17:38:34.883Z,14.40
2023-04-24T17:41:02.211Z,14.40
2023-04-24T17:43:29.150Z,14.40
2023-04-24T17:45:56.596Z,14.40
2023-04-24T17:48:23.766Z,14.40
2023-04-24T17:50:52.073Z,14.40
2023-04-24T17:53:20.628Z,14.40
2023-04-24T17:55:48.912Z,14.30
2023-04-24T17:58:17.170Z,14.30
2023-04-24T18:00:47.542Z,14.30
2023-04-24T18:03:15.928Z,14.20
2023-04-24T18:05:43.128Z,14.20
2023-04-24T18:09:20.505Z,14.20
2023-04-24T18:16:43.065Z,14.10
2023-04-24T18:22:45.186Z,14.00
2023-04-24T18:25:37.575Z,13.90
2023-04-24T18:28:07.129Z,13.80
2023-04-24T18:34:37.782Z,13.80
2023-04-24T18:40:13.226Z,13.70
2023-04-24T18:42:40.836Z,13.60
2023-04-24T18:45:14.716Z,13.70
2023-04-24T18:47:42.928Z,13.60
2023-04-24T18:50:11.143Z,13.60
2023-04-24T18:52:38.233Z,13.60
2023-04-24T18:55:06.980Z,13.50
2023-04-24T18:57:34.729Z,13.50
2023-04-24T19:00:05.553Z,13.50
2023-04-24T19:02:34.298Z,13.40
2023-04-24T19:05:02.938Z,13.40
2023-04-24T19:07:31.178Z,13.40
2023-04-24T19:10:03.808Z,13.40
2023-04-24T19:12:31.124Z,13.40
2023-04-24T19:14:58.885Z,13.40
2023-04-24T19:17:35.934Z,13.40
2023-04-24T19:20:03.472Z,13.40
2023-04-24T19:22:30.681Z,13.30
2023-04-24T19:24:58.689Z,13.30
2023-04-24T19:27:26.431Z,13.30
2023-04-24T19:29:55.084Z,13.40
2023-04-24T19:32:24.017Z,13.30
2023-04-24T19:35:18.581Z,13.30
2023-04-24T19:37:54.995Z,13.30
2023-04-24T19:40:23.413Z,13.30
2023-04-24T19:42:54.052Z,13.20
2023-04-24T19:45:23.343Z,13.20
2023-04-24T19:48:10.306Z,13.20
2023-04-24T19:50:45.461Z,13.20
2023-04-24T19:53:35.095Z,13.20
2023-04-24T19:56:04.318Z,13.20
2023-04-24T19:58:38.751Z,13.20
2023-04-24T20:01:07.191Z,13.20
2023-04-24T20:03:35.011Z,13.10
2023-04-24T20:06:02.363Z,13.10
2023-04-24T20:08:29.448Z,13.10
2023-04-24T20:11:02.714Z,13.10
2023-04-24T20:13:35.618Z,13.10
2023-04-24T20:16:02.760Z,13.10
2023-04-24T20:18:29.783Z,13.10
2023-04-24T20:20:59.744Z,13.10
2023-04-24T20:23:27.309Z,13.00
2023-04-24T20:25:58.512Z,13.00
2023-04-24T20:28:27.450Z,13.00
2023-04-24T20:30:54.500Z,13.00
2023-04-24T20:33:23.726Z,13.00
2023-04-24T20:35:52.437Z,13.00
2023-04-24T20:38:19.550Z,13.00
2023-04-24T20:40:57.233Z,13.00
2023-04-24T20:43:28.864Z,12.90
2023-04-24T20:45:58.331Z,12.90
2023-04-24T20:48:26.775Z,12.90
2023-04-24T20:50:54.122Z,12.90
2023-04-24T20:53:21.727Z,12.80
2023-04-24T20:55:49.052Z,12.80
2023-04-24T20:58:18.269Z,12.80
2023-04-24T21:00:45.731Z,12.80
2023-04-24T21:03:13.207Z,12.80
2023-04-24T21:05:40.427Z,12.80
2023-04-24T21:08:07.342Z,12.80
2023-04-24T21:10:34.430Z,12.70
2023-04-24T21:13:01.349Z,12.70
2023-04-24T21:15:28.595Z,12.70
2023-04-24T21:17:55.923Z,12.70
2023-04-24T21:20:23.029Z,12.70
2023-04-24T21:22:49.965Z,12.70
2023-04-24T21:25:17.023Z,12.70
2023-04-24T21:27:44.127Z,12.70
2023-04-24T21:30:11.684Z,12.70
2023-04-24T21:32:40.679Z,12.60
2023-04-24T21:35:08.886Z,12.60
2023-04-24T21:37:37.927Z,12.60
2023-04-24T21:40:05.496Z,12.60
2023-04-24T21:42:32.437Z,12.60
2023-04-24T21:44:59.557Z,12.60
2023-04-24T21:47:26.841Z,12.60
2023-04-24T21:49:53.804Z,12.50
2023-04-24T21:52:20.792Z,12.50
2023-04-24T21:54:47.814Z,12.60
2023-04-24T21:57:14.833Z,12.50
2023-04-24T21:59:42.290Z,12.40
2023-04-24T22:02:09.546Z,12.40
2023-04-24T22:04:36.654Z,12.30
2023-04-24T22:07:03.980Z,12.20
2023-04-24T22:09:31.079Z,12.10
2023-04-24T22:11:58.164Z,12.00
2023-04-24T22:14:25.470Z,12.00
2023-04-24T22:16:52.463Z,11.90
2023-04-24T22:19:19.391Z,11.80
2023-04-24T22:21:46.418Z,11.70
2023-04-24T22:24:13.448Z,11.70
2023-04-24T22:26:40.496Z,11.70
2023-04-24T22:29:07.363Z,11.70
2023-04-24T22:31:34.754Z,11.70
2023-04-24T22:34:02.992Z,11.70
2023-04-24T22:36:29.924Z,11.70
2023-04-24T22:38:56.854Z,11.70
2023-04-24T22:41:23.792Z,11.70
2023-04-24T22:43:51.181Z,11.70
2023-04-24T22:46:18.239Z,11.70
2023-04-24T22:48:45.937Z,11.70
2023-04-24T22:51:12.861Z,11.80
2023-04-24T22:53:39.807Z,11.70
2023-04-24T22:56:07.170Z,11.80
2023-04-24T22:58:34.107Z,11.80
2023-04-24T23:01:01.201Z,11.80
2023-04-24T23:03:28.471Z,11.80
2023-04-24T23:05:55.756Z,11.80
2023-04-24T23:08:22.719Z,11.80
2023-04-24T23:10:49.689Z,11.80
2023-04-24T23:13:16.785Z,11.80
2023-04-24T23:15:43.715Z,11.80
2023-04-24T23:18:11.647Z,11.80
2023-04-24T23:20:39.017Z,11.80
2023-04-24T23:23:05.976Z,11.80
2023-04-24T23:25:33.148Z,11.80
2023-04-24T23:28:00.069Z,11.80
2023-04-24T23:30:27.197Z,11.80
2023-04-24T23:32:54.105Z,11.70
2023-04-24T23:35:21.191Z,11.70
2023-04-24T23:37:48.303Z,11.70
2023-04-24T23:40:15.369Z,11.70
2023-04-24T23:42:42.268Z,11.70
2023-04-24T23:45:11.082Z,11.70
2023-04-24T23:47:38.528Z,11.70
2023-04-24T23:50:06.129Z,11.70
2023-04-24T23:52:35.314Z,11.70
2023-04-24T23:55:04.580Z,11.70
2023-04-24T23:57:32.216Z,11.70
2023-04-24T23:59:59.222Z,11.70
